Aérodrome :
LOGIN :

S'inscrire | Disclaimer

   EN    FR    IT 

 










Légende :    VFR   VFR Marginal   IFR   IFR Intensif   IFR Très Intensif
Visi : 
Plafond : 
>= 8 km
>= 3000ft
5 à 8 km
1000 à 3000 ft
1500m à 5 km
500 à 1000 ft
800 à 1500m
200 à 500 ft
< 800m
< 200 ft
Symboles :   Orages  Brouillard  Fortes neiges  Fortes précipitations  Vent > 20 kt
SIGMETs :   Divers  Orages  Givrage  Turbulence  Onde Orograph.  Cendres Volcan.






- Altitude de l'aérodrome : 1161 ft
- Code IATA : RJL


LELO - Logroño-Agoncillo

DERNIER METAR :
  • 141330Z 22004KT 170V280 9999 FEW040 SCT060 10/02 Q0997

METARs EXPIRÉS :
  • 141230Z VRB03KT 9999 SCT040 SCT060 09/02 Q0998
  • 141200Z 11005KT 060V150 9999 FEW040 SCT050 08/03 Q0999
  • 141130Z VRB02KT 9999 SCT030 09/04 Q0999
  • 141100Z 12005KT 090V160 9999 FEW030 08/05 Q1000

TAF TAF LELO
Valide du 14 à 12h jusqu'au 14 à 21h UTC


141100Z 1412/1421 27008KT 9999 BKN020
PROB40
TEMPO 1412/1421 27015G25KT 3000 SHRA SCT020TCU SCT030CB



MET'MAP, la Météo Aéronautique d'un coup d'oeil ! - Copyright ORBIFLY Décembre 2007 - Disclaimer

ORBIFLY MET'MAP TEAM :

Programmation & Développement : Alexandra Zaïnal
Conception & Développement : Baudouin d'Aumeries
Co-Programmation & Développement : Marc-Olivier Méhu
Soutien technique & logistique : Manuel Goepfert

Contact : metmap@orbifly.com




SOURCES & CREDITS :

   NOAA